Terminal Aerodrome Forecast
Issued by NWS Raleigh/Durham, NC

Home | Current Version | Previous Version | Text Only | Print | Product List | Glossary On
Versions: 1 2 3 4 5 6 7 8 9 10 11 12 13 14 15 16 17 18 19 20 21
000
FTUS42 KRAH 170759 AAB
TAFFAY
TAF AMD
KFAY 170759Z 1708/1806 34003KT P6SM BKN010 OVC100
     FM170900 12002KT 4SM BR OVC003
     FM171800 24012G20KT P6SM SCT025
      TEMPO 1718/1722 BKN025=

USA.gov is the U.S. government's official web portal to all federal, state and local government web resources and services.